»·PEaware :: N196DA KAVX-KSAN

N196DA :: KAVX-KSAN

FLIGHT INFORMATION

Flight Status: Arrived
Operator: Privately registered:
United States
More flights under this callsign
Pilot: Ednei R. (17295)
Aircraft: BEECH AIRCRAFT BONANZA
(BE35)
More flights by this aircraft type
Origin: KAVX Catalina
United States
Destination: KSAN San Diego Intl-Lindbergh
United States
More flights between these airports :: More routes between these airports
Route: SXC V208 OCN V23 MZB
File this flight plan on PilotEdge
Remarks: TEC Route CSTP56
Altitude:
(Current/Filed)
5,000ft
Speed:
(Current/Filed)
170kts
Departed: 02-Aug-18 10:42 AM
Arrived: 02-Aug-18 11:30 AM
Distance/Time
Traveled:
74nm/0:48
Distance/Time
To Go:
Arrived

Flight Plot

Page will automatically refresh every two minutes.


Map Options




Map Legend


Flown Route
Filed Route
Departure Airport
Arrival Airport
Navaid (VOR, NDB)
Fix

Horizontal Profiles

Position Reports

Time Latitude Longitude Heading Altitude Ground
Speed
02-Aug-18 10:15 33.403292 -118.415955 45 1551ft 0kts
02-Aug-18 10:16 33.403292 -118.415955 45 1551ft 0kts
02-Aug-18 10:17 33.403292 -118.415955 45 1551ft 0kts
02-Aug-18 10:18 33.403292 -118.415955 45 1551ft 0kts
02-Aug-18 10:19 33.403292 -118.415955 45 1551ft 0kts
02-Aug-18 10:20 33.403292 -118.415955 45 1551ft 0kts
02-Aug-18 10:21 33.403292 -118.415955 45 1551ft 0kts
02-Aug-18 10:22 33.403292 -118.415955 45 1551ft 0kts
02-Aug-18 10:23 33.403292 -118.415955 45 1551ft 0kts
02-Aug-18 10:24 33.403292 -118.415955 45 1551ft 0kts
02-Aug-18 10:25 33.403292 -118.415955 45 1551ft 0kts
02-Aug-18 10:26 33.403292 -118.415955 45 1551ft 0kts
02-Aug-18 10:27 33.403292 -118.415955 45 1551ft 0kts
02-Aug-18 10:28 33.403292 -118.415955 45 1551ft 0kts
02-Aug-18 10:29 33.403292 -118.415955 45 1551ft 0kts
02-Aug-18 10:30 33.403292 -118.415955 45 1551ft 0kts
02-Aug-18 10:31 33.403292 -118.415955 45 1551ft 0kts
02-Aug-18 10:32 33.403292 -118.415955 45 1551ft 0kts
02-Aug-18 10:33 33.403292 -118.415955 45 1551ft 0kts
02-Aug-18 10:34 33.403292 -118.415955 45 1551ft 0kts
02-Aug-18 10:35 33.403292 -118.415955 45 1551ft 0kts
02-Aug-18 10:36 33.403292 -118.415955 45 1551ft 0kts
02-Aug-18 10:37 33.403307 -118.415938 41 1551ft 2kts
02-Aug-18 10:38 33.403722 -118.416865 290 1555ft 6kts
02-Aug-18 10:39 33.402322 -118.419588 234 1554ft 0kts
02-Aug-18 10:40 33.402322 -118.419588 234 1554ft 0kts
02-Aug-18 10:41 33.402322 -118.419588 234 1554ft 0kts
02-Aug-18 10:42 33.402306 -118.419870 322 1552ft 7kts
02-Aug-18 10:43 33.410631 -118.406406 55 1745ft 94kts
02-Aug-18 10:44 33.425337 -118.379802 79 2503ft 96kts
02-Aug-18 10:45 33.416124 -118.351205 117 3222ft 96kts
02-Aug-18 10:46 33.404248 -118.321841 118 3920ft 103kts
02-Aug-18 10:47 33.389142 -118.291625 127 4601ft 108kts
02-Aug-18 10:48 33.370273 -118.261475 130 5085ft 127kts
02-Aug-18 10:49 33.347238 -118.221395 111 5053ft 159kts
02-Aug-18 10:50 33.333064 -118.169032 102 5058ft 171kts
02-Aug-18 10:51 33.323767 -118.112979 100 5049ft 173kts
02-Aug-18 10:52 33.315302 -118.056069 100 5053ft 173kts
02-Aug-18 10:53 33.307397 -117.999317 95 5065ft 173kts
02-Aug-18 10:54 33.301415 -117.941542 99 5034ft 175kts
02-Aug-18 10:55 33.294065 -117.883907 97 5053ft 174kts
02-Aug-18 10:56 33.288895 -117.825684 93 5014ft 177kts
02-Aug-18 10:57 33.283887 -117.767250 100 5005ft 177kts
02-Aug-18 10:58 33.274487 -117.709054 102 4980ft 178kts
02-Aug-18 10:59 33.264644 -117.651600 94 4974ft 178kts
02-Aug-18 11:00 33.262024 -117.592627 95 4984ft 177kts
02-Aug-18 11:01 33.257118 -117.544078 97 4987ft 176kts
02-Aug-18 11:02 33.247884 -117.476653 101 4990ft 175kts
02-Aug-18 11:03 33.239452 -117.429439 110 5003ft 174kts
02-Aug-18 11:04 33.192599 -117.400077 168 4979ft 171kts
02-Aug-18 11:05 33.148003 -117.381786 151 5007ft 171kts
02-Aug-18 11:06 33.113155 -117.358365 151 4989ft 173kts
02-Aug-18 11:07 33.062747 -117.331220 161 5015ft 172kts
02-Aug-18 11:08 33.024517 -117.317253 167 5032ft 171kts
02-Aug-18 11:09 32.977360 -117.305789 169 5005ft 173kts
02-Aug-18 11:10 32.930828 -117.291539 158 4998ft 174kts
02-Aug-18 11:11 32.886592 -117.268995 160 4993ft 174kts
02-Aug-18 11:12 32.840656 -117.251163 166 4980ft 173kts
02-Aug-18 11:13 32.795498 -117.233161 139 4980ft 174kts
02-Aug-18 11:14 32.781310 -117.178487 100 4968ft 176kts
02-Aug-18 11:15 32.773753 -117.121488 104 4974ft 176kts
02-Aug-18 11:16 32.764107 -117.064710 103 4987ft 174kts
02-Aug-18 11:17 32.754948 -117.007760 101 4981ft 175kts
02-Aug-18 11:18 32.745275 -116.950902 100 4981ft 175kts
02-Aug-18 11:19 32.736766 -116.893973 99 4973ft 175kts
02-Aug-18 11:20 32.722845 -116.841862 151 4994ft 157kts
02-Aug-18 11:21 32.686648 -116.853041 245 4962ft 133kts
02-Aug-18 11:22 32.675447 -116.895791 253 4542ft 148kts
02-Aug-18 11:23 32.672116 -116.945281 280 3953ft 156kts
02-Aug-18 11:24 32.682429 -116.992060 291 3218ft 127kts
02-Aug-18 11:25 32.695435 -117.027909 294 2669ft 109kts
02-Aug-18 11:26 32.703728 -117.063658 278 2277ft 113kts
02-Aug-18 11:27 32.710690 -117.096226 284 1750ft 97kts
02-Aug-18 11:28 32.718489 -117.126317 281 1156ft 95kts
02-Aug-18 11:29 32.725353 -117.156121 283 567ft 87kts
02-Aug-18 11:30 32.731717 -117.182058 282 24ft 77kts
02-Aug-18 11:31 32.734812 -117.190396 64 16ft 7kts
02-Aug-18 11:32 32.734146 -117.187334 106 17ft 12kts
02-Aug-18 11:33 32.732936 -117.182334 105 16ft 13kts
02-Aug-18 11:34 32.733188 -117.178928 103 20ft 6kts
02-Aug-18 11:35 32.733133 -117.178812 125 20ft 0kts
02-Aug-18 11:36 32.733133 -117.178812 125 20ft 0kts

Navigation Log

Ident Type
1. KAVX Airport
2. SXC Navaid
3. AVOLS Fix
4. PACIF Fix
5. HUBRD Fix
6. OCN Navaid
7. HURSI Fix
8. CARIF Fix
9. MZB Navaid
10. KSAN Airport